Time;durP1;ratioP1;P1;durP2;ratioP2;P2;SDS_P1;SDS_P2;PMS_P1;PMS_P2;Temp;Humidity;BMP_temperature;BMP_pressure;BME280_temperature;BME280_humidity;BME280_pressure;Samples;Min_cycle;Max_cycle;Signal;HPM_P1;HPM_P2
2021/11/15 00:00:36;;;;;;;23.53;19.10;;;8.20;99.90;;;;;;4994687;28;20195;-52
2021/11/15 00:03:02;;;;;;;22.63;17.70;;;8.30;99.90;;;;;;5015629;23;20227;-63
2021/11/15 00:05:28;;;;;;;22.93;18.23;;;8.30;99.90;;;;;;5017101;28;20185;-63
2021/11/15 00:07:53;;;;;;;22.20;17.30;;;8.30;99.90;;;;;;5016583;28;20693;-63
2021/11/15 00:10:19;;;;;;;24.30;18.53;;;8.40;99.90;;;;;;5017012;28;20635;-65
2021/11/15 00:12:47;;;;;;;23.03;17.60;;;8.30;99.90;;;;;;5016724;28;20762;-62
2021/11/15 00:15:13;;;;;;;24.63;18.60;;;8.30;99.90;;;;;;5016815;28;20656;-63
2021/11/15 00:17:39;;;;;;;23.23;18.37;;;8.30;99.90;;;;;;5016999;28;20239;-63
2021/11/15 00:20:06;;;;;;;21.67;17.67;;;8.40;99.90;;;;;;5017425;28;20242;-63
2021/11/15 00:22:32;;;;;;;22.60;17.83;;;8.30;99.90;;;;;;5016627;28;20252;-61
2021/11/15 00:24:58;;;;;;;21.37;17.17;;;8.30;99.90;;;;;;5016675;28;20235;-63
2021/11/15 00:27:23;;;;;;;24.57;18.17;;;8.30;99.90;;;;;;5017714;28;20666;-62
2021/11/15 00:29:49;;;;;;;21.67;18.03;;;9.30;99.90;;;;;;5015777;28;20180;-63
2021/11/15 00:32:15;;;;;;;21.03;17.10;;;8.30;99.90;;;;;;5017125;28;20183;-59
2021/11/15 00:34:40;;;;;;;22.03;17.63;;;8.40;99.90;;;;;;5017187;28;20179;-63
2021/11/15 00:37:06;;;;;;;20.10;17.23;;;8.40;99.90;;;;;;5016865;28;20692;-61
2021/11/15 00:39:31;;;;;;;20.57;17.23;;;9.80;99.90;;;;;;5016742;28;20172;-64
2021/11/15 00:41:57;;;;;;;18.37;16.00;;;8.50;99.90;;;;;;5016223;28;20172;-63
2021/11/15 00:44:23;;;;;;;19.23;16.03;;;8.50;99.90;;;;;;5016846;28;20230;-65
2021/11/15 00:46:48;;;;;;;17.60;15.13;;;8.60;99.90;;;;;;5016720;28;20199;-62
2021/11/15 00:49:14;;;;;;;16.13;14.07;;;8.60;99.90;;;;;;5016077;28;20181;-63
2021/11/15 00:51:39;;;;;;;17.37;14.83;;;8.60;99.90;;;;;;5015574;28;20176;-63
2021/11/15 00:54:05;;;;;;;17.27;14.93;;;8.60;99.90;;;;;;5015343;28;20230;-63
2021/11/15 00:56:30;;;;;;;17.77;14.87;;;8.50;99.90;;;;;;5015294;28;20192;-62
2021/11/15 00:58:56;;;;;;;16.20;13.77;;;8.50;99.90;;;;;;5015373;28;20169;-59
2021/11/15 01:01:22;;;;;;;18.40;15.37;;;8.50;99.90;;;;;;5015140;28;20182;-61
2021/11/15 01:03:48;;;;;;;18.33;15.90;;;7.80;99.90;;;;;;5014878;28;20208;-63
2021/11/15 01:06:13;;;;;;;18.70;16.13;;;8.40;99.90;;;;;;5015129;28;20329;-61
2021/11/15 01:08:39;;;;;;;18.37;15.73;;;8.40;99.90;;;;;;5015518;28;20181;-63
2021/11/15 01:11:06;;;;;;;19.40;15.57;;;8.40;99.90;;;;;;5015719;28;20191;-60
2021/11/15 01:13:31;;;;;;;19.37;16.20;;;8.40;99.90;;;;;;5015548;28;20193;-63
2021/11/15 01:15:57;;;;;;;18.60;15.57;;;8.30;99.90;;;;;;5015243;28;20215;-61
2021/11/15 01:18:23;;;;;;;20.00;16.37;;;8.30;99.90;;;;;;5015271;28;20256;-61
2021/11/15 01:20:49;;;;;;;20.77;16.83;;;8.30;99.90;;;;;;5015257;28;20180;-61
2021/11/15 01:23:15;;;;;;;20.57;17.40;;;8.30;99.90;;;;;;5015028;28;20631;-61
2021/11/15 01:25:42;;;;;;;22.50;17.57;;;8.10;99.90;;;;;;5015495;28;20694;-60
2021/11/15 01:28:08;;;;;;;20.50;17.07;;;8.00;99.90;;;;;;5015286;28;20196;-63
2021/11/15 01:30:35;;;;;;;20.63;16.90;;;8.00;99.90;;;;;;5014917;28;20236;-61
2021/11/15 01:33:00;;;;;;;20.10;16.60;;;7.90;99.90;;;;;;5014851;28;20610;-59
2021/11/15 01:35:27;;;;;;;20.07;15.97;;;7.90;99.90;;;;;;5015279;28;20173;-62
2021/11/15 01:37:54;;;;;;;18.57;15.43;;;7.90;99.90;;;;;;5014887;28;20208;-59
2021/11/15 01:40:23;;;;;;;20.47;17.30;;;8.10;99.90;;;;;;5014511;28;20169;-61
2021/11/15 01:42:50;;;;;;;19.80;16.40;;;7.70;99.90;;;;;;5014000;28;20735;-60
2021/11/15 01:45:22;;;;;;;21.13;16.87;;;7.60;99.90;;;;;;5014560;28;20206;-61
2021/11/15 01:47:48;;;;;;;18.70;15.30;;;7.50;99.90;;;;;;5014430;28;20264;-59
2021/11/15 01:50:17;;;;;;;21.10;16.80;;;9.20;99.90;;;;;;5014067;28;20622;-63
2021/11/15 01:52:43;;;;;;;20.50;16.53;;;7.50;99.90;;;;;;5013790;28;20697;-59
2021/11/15 01:55:09;;;;;;;22.77;17.77;;;7.50;99.90;;;;;;5014341;28;20173;-59
2021/11/15 01:57:35;;;;;;;24.63;17.80;;;7.30;99.90;;;;;;5014365;28;20306;-62
2021/11/15 02:00:08;;;;;;;20.67;16.80;;;7.30;99.90;;;;;;5014098;28;20284;-60
2021/11/15 02:02:33;;;;;;;23.47;17.67;;;7.30;99.90;;;;;;5013822;28;20200;-59
2021/11/15 02:04:59;;;;;;;22.57;17.70;;;7.20;99.90;;;;;;5013075;28;20547;-62
2021/11/15 02:07:25;;;;;;;23.10;17.93;;;7.10;99.90;;;;;;5014001;28;20297;-58
2021/11/15 02:09:52;;;;;;;24.30;19.17;;;7.10;99.90;;;;;;5014048;28;20177;-62
2021/11/15 02:12:18;;;;;;;23.70;18.53;;;7.00;99.90;;;;;;5013761;28;20259;-63
2021/11/15 02:14:43;;;;;;;22.63;18.50;;;6.90;99.90;;;;;;5014074;28;20212;-60
2021/11/15 02:17:09;;;;;;;25.57;19.83;;;6.70;99.90;;;;;;5013488;28;20204;-59
2021/11/15 02:19:35;;;;;;;24.47;18.50;;;6.70;99.90;;;;;;5014222;28;20266;-64
2021/11/15 02:22:00;;;;;;;21.83;17.67;;;6.80;99.90;;;;;;5012873;28;20547;-61
2021/11/15 02:24:27;;;;;;;23.07;18.13;;;6.90;99.90;;;;;;5013857;28;20633;-60
2021/11/15 02:26:53;;;;;;;22.63;18.03;;;6.90;99.90;;;;;;5013614;28;20567;-62
2021/11/15 02:29:19;;;;;;;22.47;18.50;;;6.90;99.90;;;;;;5013797;28;20187;-62
2021/11/15 02:31:44;;;;;;;23.30;17.77;;;6.60;99.90;;;;;;5013278;28;20617;-61
2021/11/15 02:34:11;;;;;;;21.97;17.37;;;6.50;99.90;;;;;;5013095;28;20254;-60
2021/11/15 02:36:38;;;;;;;22.07;17.77;;;6.50;99.90;;;;;;5013358;28;20205;-64
2021/11/15 02:39:05;;;;;;;22.33;16.70;;;6.50;99.90;;;;;;5013418;28;20193;-61
2021/11/15 02:41:31;;;;;;;21.83;17.23;;;6.50;99.90;;;;;;5013317;28;20574;-62
2021/11/15 02:43:58;;;;;;;21.03;16.77;;;6.60;99.90;;;;;;5013057;28;20275;-62
2021/11/15 02:46:24;;;;;;;20.53;16.43;;;6.60;99.90;;;;;;5013944;28;20172;-61
2021/11/15 02:48:50;;;;;;;20.73;16.93;;;6.60;99.90;;;;;;5013109;28;20184;-63
2021/11/15 02:51:16;;;;;;;20.70;16.77;;;6.60;99.90;;;;;;5013534;28;20180;-62
2021/11/15 02:53:43;;;;;;;23.17;18.47;;;6.60;99.90;;;;;;5013432;28;20274;-57
2021/11/15 02:56:09;;;;;;;22.53;17.30;;;6.50;99.90;;;;;;5013294;28;20204;-62
2021/11/15 02:58:35;;;;;;;22.13;17.40;;;6.40;99.90;;;;;;5013913;28;20184;-61
2021/11/15 03:01:07;;;;;;;22.93;17.73;;;6.40;99.90;;;;;;5013927;28;20608;-62
2021/11/15 03:03:33;;;;;;;19.30;15.20;;;6.50;99.90;;;;;;5013175;28;20220;-60
2021/11/15 03:05:59;;;;;;;22.37;17.33;;;6.50;99.90;;;;;;5013292;28;20187;-64
2021/11/15 03:08:25;;;;;;;21.10;16.70;;;6.50;99.90;;;;;;5013858;28;20168;-62
2021/11/15 03:10:58;;;;;;;19.70;16.40;;;6.50;99.90;;;;;;5013429;28;20647;-64
2021/11/15 03:13:24;;;;;;;23.20;17.33;;;6.50;99.90;;;;;;5013319;28;20570;-62
2021/11/15 03:15:52;;;;;;;22.07;16.43;;;6.50;99.90;;;;;;5014321;28;20272;-61
2021/11/15 03:18:21;;;;;;;20.50;16.17;;;6.40;99.90;;;;;;5014684;28;20161;-62
2021/11/15 03:20:50;;;;;;;20.60;16.60;;;6.40;99.90;;;;;;5013650;28;20199;-59
2021/11/15 03:23:20;;;;;;;19.90;15.57;;;6.20;99.90;;;;;;5013888;28;20188;-64
2021/11/15 03:25:46;;;;;;;22.80;17.60;;;6.10;99.90;;;;;;5014331;28;20160;-61
2021/11/15 03:28:15;;;;;;;20.47;16.17;;;6.10;99.90;;;;;;5013882;28;20172;-61
2021/11/15 03:30:41;;;;;;;18.97;14.83;;;6.20;99.90;;;;;;5013973;28;20200;-62
2021/11/15 03:33:08;;;;;;;20.00;16.33;;;6.20;99.90;;;;;;5013435;28;20670;-64
2021/11/15 03:35:34;;;;;;;19.40;14.77;;;6.20;99.90;;;;;;5016855;28;20180;-59
2021/11/15 03:38:00;;;;;;;19.57;15.70;;;6.10;99.90;;;;;;5017012;28;20180;-58
2021/11/15 03:40:27;;;;;;;17.10;14.17;;;6.10;99.90;;;;;;5016907;28;20180;-57
2021/11/15 03:42:58;;;;;;;16.67;13.70;;;6.10;99.90;;;;;;5016675;28;20717;-58
2021/11/15 03:45:26;;;;;;;14.17;11.50;;;6.10;99.90;;;;;;5016934;28;20172;-58
2021/11/15 03:47:52;;;;;;;15.03;12.90;;;6.10;99.90;;;;;;5016839;28;20169;-61
2021/11/15 03:50:18;;;;;;;14.67;12.77;;;6.00;99.90;;;;;;5017002;28;20176;-63
2021/11/15 03:52:45;;;;;;;16.97;13.43;;;5.60;99.90;;;;;;5016415;28;20200;-62
2021/11/15 03:55:14;;;;;;;14.93;12.53;;;5.50;99.90;;;;;;5016324;28;20169;-63
2021/11/15 03:57:39;;;;;;;15.07;12.80;;;5.60;99.90;;;;;;5016069;28;20327;-62
2021/11/15 04:00:08;;;;;;;16.80;12.70;;;5.60;99.90;;;;;;5015979;28;20176;-62
2021/11/15 04:02:35;;;;;;;20.73;15.40;;;5.70;99.90;;;;;;5015390;28;20216;-63
2021/11/15 04:05:04;;;;;;;18.30;14.47;;;5.70;99.90;;;;;;5015840;28;20543;-62
2021/11/15 04:07:38;;;;;;;18.43;14.17;;;5.50;99.90;;;;;;5015813;28;20176;-61
2021/11/15 04:10:11;;;;;;;17.40;14.27;;;5.40;99.90;;;;;;5015879;28;20171;-62
2021/11/15 04:12:38;;;;;;;19.13;13.80;;;5.40;99.90;;;;;;5015837;28;20200;-60
2021/11/15 04:15:04;;;;;;;17.47;13.73;;;5.30;99.90;;;;;;5015794;28;20374;-60
2021/11/15 04:17:30;;;;;;;14.50;12.93;;;5.40;99.90;;;;;;5015619;28;20211;-59
2021/11/15 04:19:55;;;;;;;15.80;13.03;;;5.40;99.90;;;;;;5015287;28;20176;-60
2021/11/15 04:22:21;;;;;;;14.70;12.67;;;5.40;99.90;;;;;;5015451;28;20173;-60
2021/11/15 04:24:47;;;;;;;13.50;11.60;;;5.40;99.90;;;;;;5015534;28;20259;-61
2021/11/15 04:27:13;;;;;;;14.47;12.33;;;5.50;99.90;;;;;;5015670;28;20184;-62
2021/11/15 04:29:40;;;;;;;14.00;12.50;;;5.50;99.90;;;;;;5015730;28;20230;-62
2021/11/15 04:32:06;;;;;;;13.87;12.13;;;5.40;99.90;;;;;;5014748;28;20185;-59
2021/11/15 04:34:32;;;;;;;14.47;12.23;;;5.50;99.90;;;;;;5014174;28;20184;-62
2021/11/15 04:36:58;;;;;;;15.33;12.93;;;5.50;99.90;;;;;;5015919;28;20204;-60
2021/11/15 04:39:24;;;;;;;17.23;13.77;;;5.50;99.90;;;;;;5015333;28;20256;-61
2021/11/15 04:41:49;;;;;;;18.00;14.60;;;5.50;99.90;;;;;;5013499;28;20207;-61
2021/11/15 04:44:15;;;;;;;17.43;13.50;;;5.50;99.90;;;;;;5015207;28;20212;-61
2021/11/15 04:46:41;;;;;;;16.27;13.37;;;5.50;99.90;;;;;;5015701;28;20693;-65
2021/11/15 04:49:06;;;;;;;14.47;12.43;;;5.50;99.90;;;;;;5016223;28;20177;-60
2021/11/15 04:51:32;;;;;;;15.93;12.73;;;5.60;99.90;;;;;;5015846;28;20284;-61
2021/11/15 04:53:58;;;;;;;14.20;11.63;;;5.60;99.90;;;;;;5015493;28;20267;-60
2021/11/15 04:56:24;;;;;;;13.33;11.50;;;5.60;99.90;;;;;;5016142;28;20203;-63
2021/11/15 04:58:50;;;;;;;13.27;10.37;;;5.60;99.90;;;;;;5015224;28;20199;-62
2021/11/15 05:01:16;;;;;;;13.20;10.40;;;5.50;99.90;;;;;;5015618;28;20183;-61
2021/11/15 05:03:42;;;;;;;13.10;11.03;;;5.40;99.90;;;;;;5015130;28;20204;-62
2021/11/15 05:06:07;;;;;;;13.27;11.00;;;5.40;99.90;;;;;;5014787;28;20164;-61
2021/11/15 05:08:33;;;;;;;12.77;10.77;;;5.50;99.90;;;;;;5014927;28;20200;-62
2021/11/15 05:10:59;;;;;;;10.90;9.80;;;5.50;99.90;;;;;;5014995;28;20188;-63
2021/11/15 05:13:25;;;;;;;12.40;11.10;;;5.30;99.90;;;;;;5014317;28;20558;-63
2021/11/15 05:15:51;;;;;;;13.53;10.57;;;5.30;99.90;;;;;;5014821;28;20211;-61
2021/11/15 05:18:16;;;;;;;10.53;9.40;;;5.30;99.90;;;;;;5014826;28;20318;-62
2021/11/15 05:20:42;;;;;;;12.80;10.53;;;5.30;99.90;;;;;;5013465;28;20188;-63
2021/11/15 05:23:07;;;;;;;14.30;11.13;;;5.30;99.90;;;;;;5014169;28;20231;-63
2021/11/15 05:25:33;;;;;;;11.47;9.80;;;5.40;99.90;;;;;;5014522;28;20188;-63
2021/11/15 05:27:59;;;;;;;12.30;10.40;;;5.40;99.90;;;;;;5014806;28;20180;-61
2021/11/15 05:30:25;;;;;;;13.57;10.87;;;5.50;99.90;;;;;;5014691;28;20188;-62
2021/11/15 05:32:51;;;;;;;15.23;11.57;;;6.80;99.90;;;;;;5014552;28;20204;-63
2021/11/15 05:35:18;;;;;;;18.17;13.17;;;5.60;99.90;;;;;;5014117;28;20183;-60
2021/11/15 05:37:45;;;;;;;18.73;13.33;;;5.60;99.90;;;;;;5014663;28;20748;-61
2021/11/15 05:40:11;;;;;;;16.70;13.40;;;5.60;99.90;;;;;;5013917;28;20246;-63
2021/11/15 05:42:37;;;;;;;14.27;11.73;;;5.60;99.90;;;;;;5011591;28;20200;-63
2021/11/15 05:45:04;;;;;;;14.47;12.07;;;5.60;99.90;;;;;;5013299;28;20203;-62
2021/11/15 05:47:31;;;;;;;14.57;12.17;;;5.70;99.90;;;;;;5013507;28;20549;-61
2021/11/15 05:49:56;;;;;;;14.73;11.80;;;5.70;99.90;;;;;;5013823;28;20216;-60
2021/11/15 05:52:23;;;;;;;14.73;12.10;;;5.60;99.90;;;;;;5013451;28;20189;-62
2021/11/15 05:54:50;;;;;;;15.40;12.17;;;5.70;99.90;;;;;;5012081;28;20551;-59
2021/11/15 05:57:15;;;;;;;13.60;11.87;;;5.60;99.90;;;;;;5013565;28;20277;-63
2021/11/15 05:59:41;;;;;;;13.60;11.27;;;5.40;99.90;;;;;;5014166;28;20963;-62
2021/11/15 06:02:07;;;;;;;12.87;10.27;;;5.50;99.90;;;;;;5011868;28;20208;-60
2021/11/15 06:04:32;;;;;;;12.20;10.80;;;5.50;99.90;;;;;;5071951;23;21462;-50
2021/11/15 06:06:58;;;;;;;12.10;9.83;;;5.40;99.90;;;;;;4998692;28;20537;-53
2021/11/15 06:09:23;;;;;;;13.53;10.67;;;5.40;99.90;;;;;;4996723;28;20575;-53
2021/11/15 06:11:49;;;;;;;12.07;10.40;;;5.40;99.90;;;;;;5017855;28;20237;-51
2021/11/15 06:14:15;;;;;;;63.67;12.83;;;5.30;99.90;;;;;;5012524;28;20319;-51
2021/11/15 06:16:40;;;;;;;14.27;12.17;;;5.20;99.90;;;;;;4972818;28;20216;-53
2021/11/15 06:19:06;;;;;;;12.70;11.10;;;5.20;99.90;;;;;;4977733;28;20626;-56
2021/11/15 06:21:31;;;;;;;12.20;10.60;;;5.20;99.90;;;;;;4991483;28;20196;-51
2021/11/15 06:23:57;;;;;;;12.00;10.13;;;5.20;99.90;;;;;;4983212;28;20260;-51
2021/11/15 06:26:23;;;;;;;11.17;10.07;;;5.20;99.90;;;;;;4972362;28;20285;-51
2021/11/15 06:28:49;;;;;;;12.57;10.50;;;5.10;99.90;;;;;;4974139;28;20169;-55
2021/11/15 06:31:16;;;;;;;10.67;9.57;;;5.10;99.90;;;;;;4981315;28;20173;-52
2021/11/15 06:33:41;;;;;;;12.07;10.47;;;5.20;99.90;;;;;;4983280;28;20276;-51
2021/11/15 06:36:08;;;;;;;11.80;10.57;;;5.30;99.90;;;;;;4983435;28;20284;-52
2021/11/15 06:38:34;;;;;;;11.23;9.77;;;5.40;99.90;;;;;;4978745;28;20192;-50
2021/11/15 06:40:59;;;;;;;12.07;10.10;;;5.40;99.90;;;;;;4974949;28;20543;-51
2021/11/15 06:43:25;;;;;;;11.27;9.83;;;5.50;99.90;;;;;;4990558;28;20236;-55
2021/11/15 06:45:50;;;;;;;12.13;10.77;;;5.60;99.90;;;;;;4988541;28;20251;-50
2021/11/15 06:48:17;;;;;;;11.70;10.30;;;5.60;99.90;;;;;;4982267;28;20173;-54
2021/11/15 06:50:42;;;;;;;13.83;11.57;;;5.70;99.90;;;;;;4990677;28;20228;-55
2021/11/15 06:53:08;;;;;;;13.77;12.33;;;5.70;99.90;;;;;;4990457;28;20177;-52
2021/11/15 06:55:33;;;;;;;15.00;12.90;;;5.80;99.90;;;;;;4991332;28;20197;-51
2021/11/15 06:57:59;;;;;;;17.77;14.70;;;5.90;99.90;;;;;;4990983;28;20201;-56
2021/11/15 07:00:26;;;;;;;17.07;14.60;;;6.00;99.90;;;;;;4990913;28;20180;-55
2021/11/15 07:02:53;;;;;;;17.13;14.00;;;6.10;99.90;;;;;;4988767;28;20193;-53
2021/11/15 07:05:21;;;;;;;17.97;13.53;;;6.20;99.90;;;;;;4971811;28;20647;-59
2021/11/15 07:07:48;;;;;;;17.43;13.77;;;6.20;99.90;;;;;;4971792;28;20181;-51
2021/11/15 07:10:15;;;;;;;16.87;13.87;;;6.30;99.90;;;;;;4971915;28;20180;-52
2021/11/15 07:12:42;;;;;;;16.93;14.20;;;6.30;99.90;;;;;;4971595;28;20170;-53
2021/11/15 07:15:10;;;;;;;16.80;13.80;;;6.40;99.90;;;;;;4971642;28;20284;-56
2021/11/15 07:17:35;;;;;;;16.63;13.93;;;6.40;99.90;;;;;;4971419;28;20216;-57
2021/11/15 07:20:01;;;;;;;16.53;12.53;;;6.30;99.90;;;;;;4971329;28;20543;-53
2021/11/15 07:22:27;;;;;;;14.57;11.80;;;6.40;99.90;;;;;;4971627;28;20178;-51
2021/11/15 07:24:52;;;;;;;13.30;11.90;;;6.50;99.90;;;;;;4971530;28;20189;-53
2021/11/15 07:27:18;;;;;;;12.67;11.37;;;6.80;99.90;;;;;;4971759;28;20204;-54
2021/11/15 07:29:43;;;;;;;13.50;12.10;;;6.70;99.90;;;;;;4972128;28;20659;-56
2021/11/15 07:32:12;;;;;;;16.20;13.53;;;6.40;99.90;;;;;;4971384;28;20208;-53
2021/11/15 07:34:39;;;;;;;14.67;13.17;;;6.20;99.90;;;;;;4971362;28;20277;-55
2021/11/15 07:37:04;;;;;;;14.60;13.00;;;6.10;99.90;;;;;;4972360;28;20201;-55
2021/11/15 07:39:30;;;;;;;14.63;13.10;;;5.90;99.90;;;;;;4971912;28;20182;-55
2021/11/15 07:41:56;;;;;;;14.07;12.53;;;6.00;99.90;;;;;;4971237;28;20166;-57
2021/11/15 07:44:21;;;;;;;12.43;11.23;;;6.20;99.90;;;;;;4971940;28;20213;-54
2021/11/15 07:46:48;;;;;;;13.23;11.93;;;6.50;99.90;;;;;;4969873;28;20262;-55
2021/11/15 07:49:14;;;;;;;13.60;12.30;;;6.70;99.90;;;;;;4965502;28;20242;-55
2021/11/15 07:51:40;;;;;;;13.17;11.87;;;6.60;99.90;;;;;;4971680;28;20185;-52
2021/11/15 07:54:07;;;;;;;11.97;10.80;;;6.60;99.90;;;;;;4970737;28;20174;-56
2021/11/15 07:56:33;;;;;;;12.17;10.97;;;6.60;99.90;;;;;;4971858;28;20201;-51
2021/11/15 07:58:58;;;;;;;12.10;10.70;;;6.60;99.90;;;;;;4971616;28;20178;-56
2021/11/15 08:01:24;;;;;;;11.93;10.73;;;6.50;99.90;;;;;;4971667;28;20173;-54
2021/11/15 08:03:49;;;;;;;10.77;9.67;;;6.40;99.90;;;;;;4971223;28;20644;-51
2021/11/15 08:06:15;;;;;;;11.10;10.00;;;6.70;99.90;;;;;;4971205;28;20884;-57
2021/11/15 08:08:42;;;;;;;10.50;9.50;;;7.10;99.90;;;;;;4971362;28;20177;-55
2021/11/15 08:11:09;;;;;;;10.17;9.17;;;7.60;99.90;;;;;;4970916;28;20178;-56
2021/11/15 08:13:35;;;;;;;9.60;8.70;;;8.30;99.90;;;;;;4970917;28;20174;-55
2021/11/15 08:16:01;;;;;;;9.57;8.63;;;9.00;99.90;;;;;;4970466;28;20197;-50
2021/11/15 08:18:27;;;;;;;9.00;8.20;;;9.40;99.90;;;;;;4970962;28;20671;-49
2021/11/15 08:20:52;;;;;;;9.10;8.20;;;9.70;99.90;;;;;;4974069;28;20182;-52
2021/11/15 08:23:19;;;;;;;12.03;8.40;;;9.60;99.90;;;;;;4974460;28;20174;-52
2021/11/15 08:25:57;;;;;;;9.40;7.43;;;9.60;99.90;;;;;;4974751;28;20189;-52
2021/11/15 08:28:25;;;;;;;9.07;8.17;;;9.10;99.90;;;;;;4974342;28;20269;-54
2021/11/15 08:30:52;;;;;;;31.77;8.50;;;8.80;99.90;;;;;;4974646;28;20181;-50
2021/11/15 08:33:18;;;;;;;7.73;6.93;;;8.80;99.90;;;;;;4973995;28;20201;-50
2021/11/15 08:35:43;;;;;;;7.43;6.73;;;8.90;99.90;;;;;;4974549;28;20201;-51
2021/11/15 08:38:15;;;;;;;7.57;6.87;;;9.20;99.90;;;;;;4974435;28;20197;-51
2021/11/15 08:40:41;;;;;;;6.67;6.07;;;9.50;99.90;;;;;;4974156;28;20265;-50
2021/11/15 08:43:07;;;;;;;7.37;6.67;;;9.90;99.90;;;;;;4974032;28;20174;-55
2021/11/15 08:45:33;;;;;;;6.80;6.10;;;10.40;99.90;;;;;;4974798;28;20205;-51
2021/11/15 08:48:00;;;;;;;8.67;7.83;;;10.70;99.90;;;;;;4974458;28;20174;-54
2021/11/15 08:50:26;;;;;;;9.23;8.33;;;10.90;99.90;;;;;;4974260;28;20178;-51
2021/11/15 08:52:51;;;;;;;7.77;7.03;;;11.00;99.90;;;;;;4975441;28;20177;-49
2021/11/15 08:55:17;;;;;;;27.60;8.63;;;11.00;99.90;;;;;;4984845;28;20206;-55
2021/11/15 08:57:42;;;;;;;7.97;7.27;;;10.60;99.90;;;;;;4987023;28;20240;-54
2021/11/15 09:00:09;;;;;;;7.40;6.70;;;10.50;99.90;;;;;;4990359;28;20264;-50
2021/11/15 09:02:34;;;;;;;8.00;7.20;;;10.50;99.90;;;;;;4992844;28;20189;-50
2021/11/15 09:05:00;;;;;;;15.00;7.83;;;10.30;99.90;;;;;;4991925;28;20709;-52
2021/11/15 09:07:26;;;;;;;8.13;7.33;;;9.90;99.90;;;;;;4986786;28;20228;-51
2021/11/15 09:09:51;;;;;;;7.23;6.57;;;9.70;99.90;;;;;;4988877;28;20537;-53
2021/11/15 09:12:18;;;;;;;8.03;7.23;;;9.40;99.90;;;;;;4991828;28;20185;-56
2021/11/15 09:14:44;;;;;;;8.13;7.33;;;9.20;99.90;;;;;;4992329;28;20197;-50
2021/11/15 09:17:09;;;;;;;8.37;7.43;;;9.40;99.90;;;;;;4992790;28;20241;-56
2021/11/15 09:19:35;;;;;;;8.00;7.17;;;9.40;99.90;;;;;;4992832;28;20180;-49
2021/11/15 09:22:01;;;;;;;7.60;6.80;;;9.80;99.90;;;;;;4989569;28;20165;-51
2021/11/15 09:24:27;;;;;;;9.10;8.20;;;10.20;99.90;;;;;;4992704;28;21019;-53
2021/11/15 09:26:54;;;;;;;9.03;7.93;;;11.00;99.90;;;;;;4992287;28;20185;-53
2021/11/15 09:29:21;;;;;;;8.40;7.53;;;12.30;99.90;;;;;;4993031;28;20267;-52
2021/11/15 09:31:47;;;;;;;9.00;8.10;;;14.50;99.90;;;;;;4992446;28;20258;-55
2021/11/15 09:34:13;;;;;;;10.00;9.00;;;16.80;99.90;;;;;;4990773;28;20223;-55
2021/11/15 09:36:39;;;;;;;11.53;10.33;;;18.70;99.90;;;;;;4986226;28;20208;-52
2021/11/15 09:39:07;;;;;;;13.32;11.65;;;20.80;99.20;;;;;;4990935;28;20638;-55
2021/11/15 09:41:32;;;;;;;12.00;10.80;;;23.10;95.10;;;;;;4992889;28;20184;-55
2021/11/15 09:43:58;;;;;;;12.52;11.32;;;24.90;91.10;;;;;;4992184;28;20256;-53
2021/11/15 09:46:26;;;;;;;12.13;10.88;;;25.80;85.30;;;;;;4992169;28;20703;-58
2021/11/15 09:48:59;;;;;;;11.90;10.68;;;26.90;82.50;;;;;;4992346;28;20257;-57
2021/11/15 09:51:26;;;;;;;12.90;11.60;;;27.80;77.40;;;;;;4992598;28;20186;-51
2021/11/15 09:53:52;;;;;;;11.23;10.18;;;29.60;72.20;;;;;;4991977;28;20177;-53
2021/11/15 09:56:20;;;;;;;11.10;10.10;;;30.60;67.00;;;;;;4985156;28;20213;-58
2021/11/15 09:58:46;;;;;;;11.68;10.55;;;31.40;63.60;;;;;;4989830;28;20276;-49
2021/11/15 10:01:12;;;;;;;11.35;10.27;;;31.30;63.30;;;;;;4990014;28;20185;-55
2021/11/15 10:03:37;;;;;;;11.98;10.88;;;31.60;61.00;;;;;;4990576;28;20656;-52
2021/11/15 10:06:03;;;;;;;12.43;11.20;;;31.80;58.40;;;;;;4991379;28;20636;-54
2021/11/15 10:08:52;;;;;;;11.18;10.18;;;31.40;57.40;;;;;;4989615;28;20193;-54
2021/11/15 10:11:19;;;;;;;11.15;10.15;;;30.00;57.70;;;;;;4989278;28;20586;-54
2021/11/15 10:13:45;;;;;;;11.70;10.68;;;27.10;62.50;;;;;;4989920;28;20188;-54
2021/11/15 10:16:14;;;;;;;12.20;10.95;;;25.50;65.30;;;;;;4981038;28;20213;-56
2021/11/15 10:18:45;;;;;;;11.65;10.55;;;24.60;69.10;;;;;;4989269;28;20260;-52
2021/11/15 10:21:17;;;;;;;12.02;10.93;;;24.80;70.20;;;;;;4989232;28;20169;-57
2021/11/15 10:24:13;;;;;;;11.30;10.15;;;25.90;66.90;;;;;;4991035;28;20177;-55
2021/11/15 10:26:57;;;;;;;12.48;11.23;;;27.40;64.00;;;;;;4990947;28;20295;-56
2021/11/15 10:29:40;;;;;;;11.48;10.27;;;27.60;63.20;;;;;;4991255;28;20193;-52
2021/11/15 10:32:17;;;;;;;12.00;10.80;;;27.60;62.90;;;;;;4989017;28;20184;-52
2021/11/15 10:34:44;;;;;;;11.18;10.07;;;27.90;63.10;;;;;;4986910;28;20208;-54
2021/11/15 10:37:18;;;;;;;11.85;10.73;;;27.90;62.70;;;;;;4985197;28;20201;-55
2021/11/15 10:39:51;;;;;;;13.13;11.93;;;28.40;61.20;;;;;;4975081;28;20288;-54
2021/11/15 10:42:25;;;;;;;11.18;10.18;;;29.60;59.10;;;;;;4991071;28;20158;-54
2021/11/15 10:44:55;;;;;;;11.82;10.73;;;30.50;58.50;;;;;;4991693;28;20189;-56
2021/11/15 10:47:37;;;;;;;12.25;11.00;;;31.30;56.80;;;;;;4991504;28;20217;-57
2021/11/15 10:50:06;;;;;;;11.43;10.43;;;31.20;55.50;;;;;;4991599;28;20200;-57
2021/11/15 10:52:35;;;;;;;11.02;10.02;;;31.40;56.20;;;;;;4990879;28;20590;-57
2021/11/15 10:55:05;;;;;;;12.18;10.98;;;32.00;54.40;;;;;;4982914;28;20205;-53
2021/11/15 10:57:37;;;;;;;10.25;9.30;;;32.10;54.20;;;;;;4971013;28;20202;-57
2021/11/15 11:00:08;;;;;;;10.88;9.88;;;31.40;55.60;;;;;;4972185;28;20194;-57
2021/11/15 11:02:49;;;;;;;10.18;9.27;;;32.20;53.00;;;;;;4972212;28;20213;-54
2021/11/15 11:05:23;;;;;;;10.57;9.57;;;33.30;52.60;;;;;;4971978;28;20308;-59
2021/11/15 11:08:16;;;;;;;9.70;8.90;;;34.30;51.70;;;;;;4971925;28;20201;-51
2021/11/15 11:11:06;;;;;;;10.05;9.05;;;35.00;50.30;;;;;;4982134;28;20551;-55
2021/11/15 11:14:01;;;;;;;10.48;9.48;;;34.90;48.90;;;;;;4991301;28;20216;-53
2021/11/15 11:16:50;;;;;;;10.45;9.55;;;33.80;50.40;;;;;;4979807;28;20935;-53
2021/11/15 11:19:36;;;;;;;9.68;8.77;;;33.60;50.30;;;;;;4991138;28;20173;-54
2021/11/15 11:23:06;;;;;;;10.43;9.45;;;33.80;49.50;;;;;;4990010;28;20202;-49
2021/11/15 11:27:26;;;;;;;11.10;9.93;;;34.20;48.50;;;;;;4990977;28;20192;-50
2021/11/15 11:29:53;;;;;;;10.27;9.38;;;33.40;48.60;;;;;;4991055;28;20588;-52
2021/11/15 11:32:22;;;;;;;11.10;10.00;;;33.20;50.00;;;;;;4991052;28;20177;-51
2021/11/15 11:34:49;;;;;;;10.63;9.70;;;32.30;50.40;;;;;;4985160;28;20202;-54
2021/11/15 11:37:18;;;;;;;10.45;9.52;;;31.80;50.70;;;;;;4968803;28;20198;-53
2021/11/15 11:39:46;;;;;;;8.75;7.93;;;32.70;49.10;;;;;;4971994;28;20261;-57
2021/11/15 11:42:14;;;;;;;10.88;9.88;;;33.20;49.40;;;;;;4971500;28;20648;-55
2021/11/15 11:44:40;;;;;;;9.93;9.02;;;33.90;48.80;;;;;;4970948;28;20682;-52
2021/11/15 11:47:09;;;;;;;11.57;10.50;;;33.90;48.80;;;;;;4971817;28;20174;-58
2021/11/15 11:49:37;;;;;;;10.48;9.55;;;34.00;47.10;;;;;;4971002;28;20702;-54
2021/11/15 11:52:07;;;;;;;10.10;9.18;;;33.90;47.80;;;;;;4971462;28;20186;-55
2021/11/15 11:54:38;;;;;;;10.55;9.65;;;34.20;48.10;;;;;;4971997;28;20280;-57
2021/11/15 11:57:19;;;;;;;10.32;9.43;;;34.60;46.90;;;;;;4987743;28;20208;-55
2021/11/15 11:59:44;;;;;;;9.80;8.90;;;34.90;47.10;;;;;;4993050;28;20165;-57
2021/11/15 12:02:13;;;;;;;11.95;10.85;;;34.50;47.90;;;;;;4993496;28;20529;-57
2021/11/15 12:05:07;;;;;;;10.50;9.60;;;34.20;46.30;;;;;;4988138;28;20307;-55
2021/11/15 12:07:51;;;;;;;11.55;10.45;;;33.60;47.30;;;;;;4981559;28;20185;-55
2021/11/15 12:10:54;;;;;;;11.57;10.48;;;33.60;47.60;;;;;;4993071;28;20177;-58
2021/11/15 12:13:23;;;;;;;11.60;10.50;;;33.40;46.70;;;;;;4990658;28;20185;-51
2021/11/15 12:16:05;;;;;;;12.00;10.90;;;33.10;47.40;;;;;;4993069;28;20197;-59
2021/11/15 12:18:36;;;;;;;11.27;10.20;;;33.00;47.40;;;;;;4994337;28;20188;-55
2021/11/15 12:21:05;;;;;;;10.48;9.38;;;33.20;47.50;;;;;;4995690;28;20164;-55
2021/11/15 12:23:33;;;;;;;10.95;9.95;;;33.50;47.60;;;;;;4993827;28;20193;-59
2021/11/15 12:26:05;;;;;;;10.90;9.90;;;33.70;47.30;;;;;;4979086;28;20202;-59
2021/11/15 12:28:32;;;;;;;10.70;9.60;;;33.90;47.50;;;;;;4974005;28;20182;-55
2021/11/15 12:30:58;;;;;;;10.43;9.45;;;33.90;47.20;;;;;;4974667;28;20174;-58
2021/11/15 12:33:29;;;;;;;10.45;9.45;;;34.00;47.20;;;;;;4974575;28;20286;-56
2021/11/15 12:35:54;;;;;;;12.15;11.05;;;34.00;46.50;;;;;;4974301;28;20241;-56
2021/11/15 12:38:30;;;;;;;10.93;9.82;;;33.90;46.30;;;;;;4974540;28;20584;-55
2021/11/15 12:40:56;;;;;;;11.25;10.15;;;33.70;47.00;;;;;;4974189;28;20652;-58
2021/11/15 12:43:21;;;;;;;9.85;8.93;;;33.50;47.00;;;;;;4974269;28;20174;-55